sensor_id;sensor_type;location;lat;lon;timestamp;P1;durP1;ratioP1;P2;durP2;ratioP2
48550;SDS011;34397;51.176;6.738;2024-02-14T00:00:58;3.58;;;1.58;;
48550;SDS011;34397;51.176;6.738;2024-02-14T00:03:29;3.40;;;1.65;;
48550;SDS011;34397;51.176;6.738;2024-02-14T00:06:01;2.40;;;1.60;;
48550;SDS011;34397;51.176;6.738;2024-02-14T00:08:37;4.03;;;1.55;;
48550;SDS011;34397;51.176;6.738;2024-02-14T00:11:08;3.97;;;1.92;;
48550;SDS011;34397;51.176;6.738;2024-02-14T00:13:40;3.85;;;1.70;;
48550;SDS011;34397;51.176;6.738;2024-02-14T00:16:12;2.55;;;1.50;;
48550;SDS011;34397;51.176;6.738;2024-02-14T00:18:44;3.38;;;1.55;;
48550;SDS011;34397;51.176;6.738;2024-02-14T00:21:16;4.07;;;1.60;;
48550;SDS011;34397;51.176;6.738;2024-02-14T00:23:49;4.93;;;1.58;;
48550;SDS011;34397;51.176;6.738;2024-02-14T00:26:21;3.67;;;1.08;;
48550;SDS011;34397;51.176;6.738;2024-02-14T00:28:53;4.65;;;1.38;;
48550;SDS011;34397;51.176;6.738;2024-02-14T00:31:24;3.30;;;1.30;;
48550;SDS011;34397;51.176;6.738;2024-02-14T00:33:56;3.17;;;1.30;;
48550;SDS011;34397;51.176;6.738;2024-02-14T00:36:28;3.88;;;1.40;;
48550;SDS011;34397;51.176;6.738;2024-02-14T00:39:01;5.53;;;2.05;;
48550;SDS011;34397;51.176;6.738;2024-02-14T00:41:33;2.15;;;1.27;;
48550;SDS011;34397;51.176;6.738;2024-02-14T00:44:05;4.32;;;1.35;;
48550;SDS011;34397;51.176;6.738;2024-02-14T00:46:37;5.35;;;1.30;;
48550;SDS011;34397;51.176;6.738;2024-02-14T00:49:09;2.47;;;1.20;;
48550;SDS011;34397;51.176;6.738;2024-02-14T00:51:41;2.28;;;1.20;;
48550;SDS011;34397;51.176;6.738;2024-02-14T00:54:14;1.92;;;1.25;;
48550;SDS011;34397;51.176;6.738;2024-02-14T00:56:46;4.63;;;0.80;;
48550;SDS011;34397;51.176;6.738;2024-02-14T00:59:18;2.10;;;1.08;;
48550;SDS011;34397;51.176;6.738;2024-02-14T01:01:50;4.80;;;1.17;;
48550;SDS011;34397;51.176;6.738;2024-02-14T01:04:21;1.75;;;0.98;;
48550;SDS011;34397;51.176;6.738;2024-02-14T01:06:53;4.20;;;1.55;;
48550;SDS011;34397;51.176;6.738;2024-02-14T01:09:26;1.75;;;0.80;;
48550;SDS011;34397;51.176;6.738;2024-02-14T01:11:58;4.95;;;0.75;;
48550;SDS011;34397;51.176;6.738;2024-02-14T01:14:30;2.38;;;1.40;;
48550;SDS011;34397;51.176;6.738;2024-02-14T01:17:02;3.42;;;1.00;;
48550;SDS011;34397;51.176;6.738;2024-02-14T01:19:34;2.42;;;1.10;;
48550;SDS011;34397;51.176;6.738;2024-02-14T01:22:06;3.08;;;0.90;;
48550;SDS011;34397;51.176;6.738;2024-02-14T01:24:40;3.67;;;1.08;;
48550;SDS011;34397;51.176;6.738;2024-02-14T01:27:12;2.55;;;0.75;;
48550;SDS011;34397;51.176;6.738;2024-02-14T01:29:45;2.63;;;1.27;;
48550;SDS011;34397;51.176;6.738;2024-02-14T01:32:16;1.30;;;0.80;;
48550;SDS011;34397;51.176;6.738;2024-02-14T01:34:49;2.00;;;0.82;;
48550;SDS011;34397;51.176;6.738;2024-02-14T01:37:20;2.42;;;0.73;;
48550;SDS011;34397;51.176;6.738;2024-02-14T01:39:54;1.30;;;0.70;;
48550;SDS011;34397;51.176;6.738;2024-02-14T01:42:25;2.55;;;0.90;;
48550;SDS011;34397;51.176;6.738;2024-02-14T01:44:58;1.70;;;0.90;;
48550;SDS011;34397;51.176;6.738;2024-02-14T01:47:30;1.63;;;0.80;;
48550;SDS011;34397;51.176;6.738;2024-02-14T01:50:02;2.28;;;0.65;;
48550;SDS011;34397;51.176;6.738;2024-02-14T01:52:38;2.95;;;1.52;;
48550;SDS011;34397;51.176;6.738;2024-02-14T01:55:14;1.58;;;0.73;;
48550;SDS011;34397;51.176;6.738;2024-02-14T01:57:46;3.58;;;0.70;;
48550;SDS011;34397;51.176;6.738;2024-02-14T02:00:19;2.35;;;0.63;;
48550;SDS011;34397;51.176;6.738;2024-02-14T02:02:51;1.95;;;0.68;;
48550;SDS011;34397;51.176;6.738;2024-02-14T02:07:56;1.23;;;0.60;;
48550;SDS011;34397;51.176;6.738;2024-02-14T02:10:29;2.35;;;0.80;;
48550;SDS011;34397;51.176;6.738;2024-02-14T02:13:00;1.55;;;0.77;;
48550;SDS011;34397;51.176;6.738;2024-02-14T02:15:33;2.38;;;0.90;;
48550;SDS011;34397;51.176;6.738;2024-02-14T02:18:05;1.38;;;0.70;;
48550;SDS011;34397;51.176;6.738;2024-02-14T02:20:37;3.25;;;0.93;;
48550;SDS011;34397;51.176;6.738;2024-02-14T02:23:14;3.03;;;0.70;;
48550;SDS011;34397;51.176;6.738;2024-02-14T02:25:45;1.10;;;0.70;;
48550;SDS011;34397;51.176;6.738;2024-02-14T02:28:17;3.13;;;0.73;;
48550;SDS011;34397;51.176;6.738;2024-02-14T02:30:49;2.28;;;0.77;;
48550;SDS011;34397;51.176;6.738;2024-02-14T02:33:23;2.25;;;0.90;;
48550;SDS011;34397;51.176;6.738;2024-02-14T02:35:56;2.42;;;0.70;;
48550;SDS011;34397;51.176;6.738;2024-02-14T02:38:29;3.80;;;0.70;;
48550;SDS011;34397;51.176;6.738;2024-02-14T02:41:01;3.08;;;0.80;;
48550;SDS011;34397;51.176;6.738;2024-02-14T02:43:34;1.63;;;0.60;;
48550;SDS011;34397;51.176;6.738;2024-02-14T02:46:08;2.85;;;0.70;;
48550;SDS011;34397;51.176;6.738;2024-02-14T02:48:40;1.38;;;0.60;;
48550;SDS011;34397;51.176;6.738;2024-02-14T02:51:12;1.45;;;0.57;;
48550;SDS011;34397;51.176;6.738;2024-02-14T02:53:45;0.75;;;0.52;;
48550;SDS011;34397;51.176;6.738;2024-02-14T02:56:17;2.25;;;0.50;;
48550;SDS011;34397;51.176;6.738;2024-02-14T02:58:50;0.77;;;0.50;;
48550;SDS011;34397;51.176;6.738;2024-02-14T03:01:23;1.10;;;0.47;;
48550;SDS011;34397;51.176;6.738;2024-02-14T03:04:01;4.25;;;0.60;;
48550;SDS011;34397;51.176;6.738;2024-02-14T03:06:33;2.30;;;0.60;;
48550;SDS011;34397;51.176;6.738;2024-02-14T03:09:06;0.93;;;0.50;;
48550;SDS011;34397;51.176;6.738;2024-02-14T03:11:38;1.40;;;0.73;;
48550;SDS011;34397;51.176;6.738;2024-02-14T03:14:10;2.15;;;0.75;;
48550;SDS011;34397;51.176;6.738;2024-02-14T03:16:41;0.82;;;0.50;;
48550;SDS011;34397;51.176;6.738;2024-02-14T03:19:13;0.95;;;0.50;;
48550;SDS011;34397;51.176;6.738;2024-02-14T03:21:45;1.73;;;0.63;;
48550;SDS011;34397;51.176;6.738;2024-02-14T03:24:18;1.80;;;0.70;;
48550;SDS011;34397;51.176;6.738;2024-02-14T03:26:50;1.48;;;0.70;;
48550;SDS011;34397;51.176;6.738;2024-02-14T03:29:23;1.88;;;0.93;;
48550;SDS011;34397;51.176;6.738;2024-02-14T03:31:57;1.95;;;0.90;;
48550;SDS011;34397;51.176;6.738;2024-02-14T03:34:33;1.23;;;0.80;;
48550;SDS011;34397;51.176;6.738;2024-02-14T03:37:05;2.30;;;0.77;;
48550;SDS011;34397;51.176;6.738;2024-02-14T03:39:38;2.75;;;0.93;;
48550;SDS011;34397;51.176;6.738;2024-02-14T03:42:10;2.20;;;0.70;;
48550;SDS011;34397;51.176;6.738;2024-02-14T03:44:43;1.65;;;0.77;;
48550;SDS011;34397;51.176;6.738;2024-02-14T03:47:15;3.38;;;0.70;;
48550;SDS011;34397;51.176;6.738;2024-02-14T03:49:47;2.83;;;1.17;;
48550;SDS011;34397;51.176;6.738;2024-02-14T03:52:19;4.43;;;1.80;;
48550;SDS011;34397;51.176;6.738;2024-02-14T03:54:53;1.45;;;0.70;;
48550;SDS011;34397;51.176;6.738;2024-02-14T03:57:25;3.45;;;0.90;;
48550;SDS011;34397;51.176;6.738;2024-02-14T03:59:59;3.35;;;1.20;;
48550;SDS011;34397;51.176;6.738;2024-02-14T04:02:32;4.50;;;0.93;;
48550;SDS011;34397;51.176;6.738;2024-02-14T04:05:05;3.38;;;0.85;;
48550;SDS011;34397;51.176;6.738;2024-02-14T04:07:38;2.45;;;1.33;;
48550;SDS011;34397;51.176;6.738;2024-02-14T04:10:11;1.30;;;0.90;;
48550;SDS011;34397;51.176;6.738;2024-02-14T04:12:43;3.63;;;1.20;;
48550;SDS011;34397;51.176;6.738;2024-02-14T04:15:15;2.67;;;0.90;;
48550;SDS011;34397;51.176;6.738;2024-02-14T04:17:47;2.35;;;0.95;;
48550;SDS011;34397;51.176;6.738;2024-02-14T04:20:20;1.52;;;0.70;;
48550;SDS011;34397;51.176;6.738;2024-02-14T04:22:52;1.38;;;0.93;;
48550;SDS011;34397;51.176;6.738;2024-02-14T04:25:25;4.50;;;1.10;;
48550;SDS011;34397;51.176;6.738;2024-02-14T04:27:57;2.05;;;0.90;;
48550;SDS011;34397;51.176;6.738;2024-02-14T04:30:29;3.70;;;1.00;;
48550;SDS011;34397;51.176;6.738;2024-02-14T04:33:01;3.13;;;0.90;;
48550;SDS011;34397;51.176;6.738;2024-02-14T04:35:34;1.88;;;0.90;;
48550;SDS011;34397;51.176;6.738;2024-02-14T04:38:06;3.42;;;1.10;;
48550;SDS011;34397;51.176;6.738;2024-02-14T04:40:40;3.60;;;0.93;;
48550;SDS011;34397;51.176;6.738;2024-02-14T04:43:12;2.25;;;0.80;;
48550;SDS011;34397;51.176;6.738;2024-02-14T04:45:43;1.38;;;0.85;;
48550;SDS011;34397;51.176;6.738;2024-02-14T04:48:15;2.30;;;0.85;;
48550;SDS011;34397;51.176;6.738;2024-02-14T04:50:47;2.13;;;0.85;;
48550;SDS011;34397;51.176;6.738;2024-02-14T04:53:19;2.28;;;1.33;;
48550;SDS011;34397;51.176;6.738;2024-02-14T04:55:52;1.23;;;0.88;;
48550;SDS011;34397;51.176;6.738;2024-02-14T04:58:24;2.25;;;0.80;;
48550;SDS011;34397;51.176;6.738;2024-02-14T05:00:57;1.77;;;0.80;;
48550;SDS011;34397;51.176;6.738;2024-02-14T05:03:29;2.05;;;1.00;;
48550;SDS011;34397;51.176;6.738;2024-02-14T05:06:01;1.65;;;0.90;;
48550;SDS011;34397;51.176;6.738;2024-02-14T05:08:35;2.38;;;0.88;;
48550;SDS011;34397;51.176;6.738;2024-02-14T05:11:08;4.45;;;0.98;;
48550;SDS011;34397;51.176;6.738;2024-02-14T05:13:40;1.90;;;0.90;;
48550;SDS011;34397;51.176;6.738;2024-02-14T05:16:12;6.57;;;1.08;;
48550;SDS011;34397;51.176;6.738;2024-02-14T05:18:44;2.15;;;1.10;;
48550;SDS011;34397;51.176;6.738;2024-02-14T05:21:19;1.80;;;1.00;;
48550;SDS011;34397;51.176;6.738;2024-02-14T05:23:52;2.85;;;1.08;;
48550;SDS011;34397;51.176;6.738;2024-02-14T05:26:25;3.05;;;1.30;;
48550;SDS011;34397;51.176;6.738;2024-02-14T05:28:57;2.05;;;1.33;;
48550;SDS011;34397;51.176;6.738;2024-02-14T05:31:42;2.67;;;1.10;;
48550;SDS011;34397;51.176;6.738;2024-02-14T05:34:16;1.75;;;1.00;;
48550;SDS011;34397;51.176;6.738;2024-02-14T05:36:48;4.28;;;1.05;;
48550;SDS011;34397;51.176;6.738;2024-02-14T05:39:19;3.35;;;1.48;;
48550;SDS011;34397;51.176;6.738;2024-02-14T05:41:53;2.25;;;0.90;;
48550;SDS011;34397;51.176;6.738;2024-02-14T05:44:25;2.05;;;1.20;;
48550;SDS011;34397;51.176;6.738;2024-02-14T05:46:58;1.83;;;0.90;;
48550;SDS011;34397;51.176;6.738;2024-02-14T05:49:30;2.42;;;1.17;;
48550;SDS011;34397;51.176;6.738;2024-02-14T05:52:02;3.72;;;1.27;;
48550;SDS011;34397;51.176;6.738;2024-02-14T05:54:34;2.17;;;1.20;;
48550;SDS011;34397;51.176;6.738;2024-02-14T05:57:08;1.80;;;0.90;;
48550;SDS011;34397;51.176;6.738;2024-02-14T05:59:39;3.75;;;1.30;;
48550;SDS011;34397;51.176;6.738;2024-02-14T06:02:11;4.60;;;1.38;;
48550;SDS011;34397;51.176;6.738;2024-02-14T06:04:43;5.82;;;2.03;;
48550;SDS011;34397;51.176;6.738;2024-02-14T06:07:15;4.18;;;1.30;;
48550;SDS011;34397;51.176;6.738;2024-02-14T06:09:47;1.50;;;1.10;;
48550;SDS011;34397;51.176;6.738;2024-02-14T06:12:20;2.10;;;1.13;;
48550;SDS011;34397;51.176;6.738;2024-02-14T06:14:52;3.25;;;1.48;;
48550;SDS011;34397;51.176;6.738;2024-02-14T06:17:24;3.00;;;1.50;;
48550;SDS011;34397;51.176;6.738;2024-02-14T06:19:56;1.40;;;1.00;;
48550;SDS011;34397;51.176;6.738;2024-02-14T06:22:28;3.20;;;1.20;;
48550;SDS011;34397;51.176;6.738;2024-02-14T06:25:00;4.07;;;1.40;;
48550;SDS011;34397;51.176;6.738;2024-02-14T06:27:36;4.75;;;1.30;;
48550;SDS011;34397;51.176;6.738;2024-02-14T06:30:08;1.67;;;1.05;;
48550;SDS011;34397;51.176;6.738;2024-02-14T06:32:41;3.30;;;1.30;;
48550;SDS011;34397;51.176;6.738;2024-02-14T06:35:13;3.38;;;1.38;;
48550;SDS011;34397;51.176;6.738;2024-02-14T06:37:48;2.75;;;1.38;;
48550;SDS011;34397;51.176;6.738;2024-02-14T06:40:21;2.60;;;1.00;;
48550;SDS011;34397;51.176;6.738;2024-02-14T06:42:54;3.42;;;1.17;;
48550;SDS011;34397;51.176;6.738;2024-02-14T06:45:28;3.88;;;0.98;;
48550;SDS011;34397;51.176;6.738;2024-02-14T06:48:00;2.78;;;1.38;;
48550;SDS011;34397;51.176;6.738;2024-02-14T06:50:32;3.58;;;1.20;;
48550;SDS011;34397;51.176;6.738;2024-02-14T06:53:03;3.00;;;1.10;;
48550;SDS011;34397;51.176;6.738;2024-02-14T06:55:35;2.30;;;1.20;;
48550;SDS011;34397;51.176;6.738;2024-02-14T06:58:08;1.77;;;1.20;;
48550;SDS011;34397;51.176;6.738;2024-02-14T07:00:40;2.78;;;1.50;;
48550;SDS011;34397;51.176;6.738;2024-02-14T07:03:12;4.03;;;1.20;;
48550;SDS011;34397;51.176;6.738;2024-02-14T07:05:44;3.67;;;1.40;;
48550;SDS011;34397;51.176;6.738;2024-02-14T07:08:16;2.63;;;1.17;;
48550;SDS011;34397;51.176;6.738;2024-02-14T07:10:48;2.10;;;1.10;;
48550;SDS011;34397;51.176;6.738;2024-02-14T07:13:21;2.22;;;1.13;;
48550;SDS011;34397;51.176;6.738;2024-02-14T07:15:53;2.20;;;1.10;;
48550;SDS011;34397;51.176;6.738;2024-02-14T07:18:24;1.90;;;1.13;;
48550;SDS011;34397;51.176;6.738;2024-02-14T07:20:56;1.88;;;1.10;;
48550;SDS011;34397;51.176;6.738;2024-02-14T07:23:28;1.77;;;1.10;;
48550;SDS011;34397;51.176;6.738;2024-02-14T07:26:00;1.95;;;1.10;;
48550;SDS011;34397;51.176;6.738;2024-02-14T07:28:33;2.17;;;1.00;;
48550;SDS011;34397;51.176;6.738;2024-02-14T07:31:05;4.15;;;1.23;;
48550;SDS011;34397;51.176;6.738;2024-02-14T07:33:37;4.22;;;0.90;;
48550;SDS011;34397;51.176;6.738;2024-02-14T07:36:08;3.28;;;1.10;;
48550;SDS011;34397;51.176;6.738;2024-02-14T07:38:41;2.90;;;1.10;;
48550;SDS011;34397;51.176;6.738;2024-02-14T07:41:13;2.03;;;1.10;;
48550;SDS011;34397;51.176;6.738;2024-02-14T07:43:46;1.90;;;0.93;;
48550;SDS011;34397;51.176;6.738;2024-02-14T07:46:18;2.28;;;1.20;;
48550;SDS011;34397;51.176;6.738;2024-02-14T07:48:52;1.60;;;1.10;;
48550;SDS011;34397;51.176;6.738;2024-02-14T07:51:24;3.55;;;1.45;;
48550;SDS011;34397;51.176;6.738;2024-02-14T07:53:58;2.45;;;1.13;;
48550;SDS011;34397;51.176;6.738;2024-02-14T07:56:30;3.03;;;1.55;;
48550;SDS011;34397;51.176;6.738;2024-02-14T07:59:04;4.90;;;1.40;;
48550;SDS011;34397;51.176;6.738;2024-02-14T08:01:36;2.50;;;1.40;;
48550;SDS011;34397;51.176;6.738;2024-02-14T08:04:07;3.03;;;1.20;;
48550;SDS011;34397;51.176;6.738;2024-02-14T08:06:39;3.58;;;1.17;;
48550;SDS011;34397;51.176;6.738;2024-02-14T08:09:11;4.18;;;1.92;;
48550;SDS011;34397;51.176;6.738;2024-02-14T08:11:43;2.45;;;1.30;;
48550;SDS011;34397;51.176;6.738;2024-02-14T08:14:16;2.33;;;1.20;;
48550;SDS011;34397;51.176;6.738;2024-02-14T08:16:48;2.28;;;1.08;;
48550;SDS011;34397;51.176;6.738;2024-02-14T08:19:21;3.33;;;1.30;;
48550;SDS011;34397;51.176;6.738;2024-02-14T08:21:53;3.53;;;1.13;;
48550;SDS011;34397;51.176;6.738;2024-02-14T08:24:28;4.65;;;1.15;;
48550;SDS011;34397;51.176;6.738;2024-02-14T08:26:59;4.03;;;1.75;;
48550;SDS011;34397;51.176;6.738;2024-02-14T08:29:33;3.25;;;1.15;;
48550;SDS011;34397;51.176;6.738;2024-02-14T08:32:04;2.45;;;1.15;;
48550;SDS011;34397;51.176;6.738;2024-02-14T08:34:37;3.13;;;1.33;;
48550;SDS011;34397;51.176;6.738;2024-02-14T08:37:09;4.75;;;1.23;;
48550;SDS011;34397;51.176;6.738;2024-02-14T08:39:41;4.22;;;1.88;;
48550;SDS011;34397;51.176;6.738;2024-02-14T08:42:13;3.33;;;1.10;;
48550;SDS011;34397;51.176;6.738;2024-02-14T08:44:46;4.60;;;1.30;;
48550;SDS011;34397;51.176;6.738;2024-02-14T08:47:18;3.58;;;1.15;;
48550;SDS011;34397;51.176;6.738;2024-02-14T08:49:50;2.38;;;1.13;;
48550;SDS011;34397;51.176;6.738;2024-02-14T08:52:22;2.38;;;0.95;;
48550;SDS011;34397;51.176;6.738;2024-02-14T08:54:55;4.80;;;1.20;;
48550;SDS011;34397;51.176;6.738;2024-02-14T08:57:27;6.25;;;1.42;;
48550;SDS011;34397;51.176;6.738;2024-02-14T09:00:03;3.95;;;1.23;;
48550;SDS011;34397;51.176;6.738;2024-02-14T09:02:37;4.10;;;1.10;;
48550;SDS011;34397;51.176;6.738;2024-02-14T09:05:09;5.97;;;1.42;;
48550;SDS011;34397;51.176;6.738;2024-02-14T09:07:41;5.60;;;1.20;;
48550;SDS011;34397;51.176;6.738;2024-02-14T09:10:13;2.17;;;1.00;;
48550;SDS011;34397;51.176;6.738;2024-02-14T09:12:45;3.42;;;1.00;;
48550;SDS011;34397;51.176;6.738;2024-02-14T09:15:19;3.88;;;0.90;;
48550;SDS011;34397;51.176;6.738;2024-02-14T09:17:51;6.95;;;1.08;;
48550;SDS011;34397;51.176;6.738;2024-02-14T09:20:23;3.45;;;0.90;;
48550;SDS011;34397;51.176;6.738;2024-02-14T09:22:55;4.22;;;0.90;;
48550;SDS011;34397;51.176;6.738;2024-02-14T09:25:28;2.22;;;1.00;;
48550;SDS011;34397;51.176;6.738;2024-02-14T09:28:00;2.72;;;1.20;;
48550;SDS011;34397;51.176;6.738;2024-02-14T09:30:33;2.55;;;0.80;;
48550;SDS011;34397;51.176;6.738;2024-02-14T09:33:05;4.20;;;1.13;;
48550;SDS011;34397;51.176;6.738;2024-02-14T09:35:37;7.78;;;0.80;;
48550;SDS011;34397;51.176;6.738;2024-02-14T09:38:14;4.05;;;0.90;;
48550;SDS011;34397;51.176;6.738;2024-02-14T09:40:46;2.75;;;0.77;;
48550;SDS011;34397;51.176;6.738;2024-02-14T09:43:20;3.10;;;0.85;;
48550;SDS011;34397;51.176;6.738;2024-02-14T09:46:03;6.20;;;1.05;;
48550;SDS011;34397;51.176;6.738;2024-02-14T09:48:37;1.98;;;1.00;;
48550;SDS011;34397;51.176;6.738;2024-02-14T09:53:42;4.18;;;0.95;;
48550;SDS011;34397;51.176;6.738;2024-02-14T09:56:15;2.90;;;0.80;;
48550;SDS011;34397;51.176;6.738;2024-02-14T09:58:52;2.38;;;0.73;;
48550;SDS011;34397;51.176;6.738;2024-02-14T10:01:28;2.35;;;0.70;;
48550;SDS011;34397;51.176;6.738;2024-02-14T10:04:00;3.60;;;1.05;;
48550;SDS011;34397;51.176;6.738;2024-02-14T10:06:33;4.07;;;0.90;;
48550;SDS011;34397;51.176;6.738;2024-02-14T10:09:04;2.30;;;0.68;;
48550;SDS011;34397;51.176;6.738;2024-02-14T10:11:37;2.75;;;0.85;;
48550;SDS011;34397;51.176;6.738;2024-02-14T10:14:10;2.50;;;0.65;;
48550;SDS011;34397;51.176;6.738;2024-02-14T10:16:44;4.75;;;0.75;;
48550;SDS011;34397;51.176;6.738;2024-02-14T10:19:16;3.75;;;0.80;;
48550;SDS011;34397;51.176;6.738;2024-02-14T10:21:55;5.65;;;0.88;;
48550;SDS011;34397;51.176;6.738;2024-02-14T10:24:29;2.35;;;0.60;;
48550;SDS011;34397;51.176;6.738;2024-02-14T10:27:01;2.47;;;0.70;;
48550;SDS011;34397;51.176;6.738;2024-02-14T10:29:38;1.83;;;0.60;;
48550;SDS011;34397;51.176;6.738;2024-02-14T10:32:15;2.60;;;0.55;;
48550;SDS011;34397;51.176;6.738;2024-02-14T10:34:47;4.45;;;0.90;;
48550;SDS011;34397;51.176;6.738;2024-02-14T10:37:19;3.90;;;0.88;;
48550;SDS011;34397;51.176;6.738;2024-02-14T10:39:52;2.92;;;0.70;;
48550;SDS011;34397;51.176;6.738;2024-02-14T10:42:26;4.35;;;0.70;;
48550;SDS011;34397;51.176;6.738;2024-02-14T10:44:58;4.05;;;0.88;;
48550;SDS011;34397;51.176;6.738;2024-02-14T10:47:33;4.65;;;0.77;;
48550;SDS011;34397;51.176;6.738;2024-02-14T10:50:06;4.25;;;1.02;;
48550;SDS011;34397;51.176;6.738;2024-02-14T10:52:40;2.45;;;0.73;;
48550;SDS011;34397;51.176;6.738;2024-02-14T10:55:13;4.03;;;0.82;;
48550;SDS011;34397;51.176;6.738;2024-02-14T10:57:47;3.00;;;0.70;;
48550;SDS011;34397;51.176;6.738;2024-02-14T11:00:21;4.28;;;0.60;;
48550;SDS011;34397;51.176;6.738;2024-02-14T11:02:55;4.97;;;0.98;;
48550;SDS011;34397;51.176;6.738;2024-02-14T11:05:27;2.67;;;0.90;;
48550;SDS011;34397;51.176;6.738;2024-02-14T11:08:07;2.38;;;0.60;;
48550;SDS011;34397;51.176;6.738;2024-02-14T11:10:39;3.15;;;0.88;;
48550;SDS011;34397;51.176;6.738;2024-02-14T11:13:12;3.15;;;0.88;;
48550;SDS011;34397;51.176;6.738;2024-02-14T11:15:45;6.53;;;0.93;;
48550;SDS011;34397;51.176;6.738;2024-02-14T11:18:25;3.42;;;0.90;;
48550;SDS011;34397;51.176;6.738;2024-02-14T11:21:02;8.65;;;1.48;;
48550;SDS011;34397;51.176;6.738;2024-02-14T11:23:35;3.30;;;0.85;;
48550;SDS011;34397;51.176;6.738;2024-02-14T11:26:07;3.80;;;0.77;;
48550;SDS011;34397;51.176;6.738;2024-02-14T11:28:46;3.28;;;0.60;;
48550;SDS011;34397;51.176;6.738;2024-02-14T11:31:18;3.15;;;0.60;;
48550;SDS011;34397;51.176;6.738;2024-02-14T11:33:51;3.20;;;0.80;;
48550;SDS011;34397;51.176;6.738;2024-02-14T11:36:23;3.65;;;0.82;;
48550;SDS011;34397;51.176;6.738;2024-02-14T11:38:55;5.80;;;0.77;;
48550;SDS011;34397;51.176;6.738;2024-02-14T11:41:27;1.58;;;0.43;;
48550;SDS011;34397;51.176;6.738;2024-02-14T11:44:00;3.05;;;0.47;;
48550;SDS011;34397;51.176;6.738;2024-02-14T11:46:34;3.38;;;0.82;;
48550;SDS011;34397;51.176;6.738;2024-02-14T11:49:08;3.80;;;0.93;;
48550;SDS011;34397;51.176;6.738;2024-02-14T11:51:40;2.30;;;0.45;;
48550;SDS011;34397;51.176;6.738;2024-02-14T11:54:12;2.35;;;0.63;;
48550;SDS011;34397;51.176;6.738;2024-02-14T11:56:46;1.83;;;0.73;;
48550;SDS011;34397;51.176;6.738;2024-02-14T11:59:19;1.98;;;0.63;;
48550;SDS011;34397;51.176;6.738;2024-02-14T12:01:53;6.45;;;1.00;;
48550;SDS011;34397;51.176;6.738;2024-02-14T12:04:29;4.32;;;0.90;;
48550;SDS011;34397;51.176;6.738;2024-02-14T12:07:02;2.75;;;0.60;;
48550;SDS011;34397;51.176;6.738;2024-02-14T12:09:34;3.80;;;1.10;;
48550;SDS011;34397;51.176;6.738;2024-02-14T12:12:06;2.58;;;1.00;;
48550;SDS011;34397;51.176;6.738;2024-02-14T12:14:39;1.90;;;0.95;;
48550;SDS011;34397;51.176;6.738;2024-02-14T12:17:11;1.77;;;0.88;;
48550;SDS011;34397;51.176;6.738;2024-02-14T12:19:44;3.70;;;0.80;;
48550;SDS011;34397;51.176;6.738;2024-02-14T12:22:16;2.13;;;0.82;;
48550;SDS011;34397;51.176;6.738;2024-02-14T12:24:49;4.15;;;1.00;;
48550;SDS011;34397;51.176;6.738;2024-02-14T12:27:31;3.13;;;0.88;;
48550;SDS011;34397;51.176;6.738;2024-02-14T12:30:04;1.95;;;0.90;;
48550;SDS011;34397;51.176;6.738;2024-02-14T12:32:38;6.18;;;1.02;;
48550;SDS011;34397;51.176;6.738;2024-02-14T12:35:11;3.38;;;0.80;;
48550;SDS011;34397;51.176;6.738;2024-02-14T12:37:43;5.57;;;1.20;;
48550;SDS011;34397;51.176;6.738;2024-02-14T12:40:15;3.45;;;0.90;;
48550;SDS011;34397;51.176;6.738;2024-02-14T12:42:50;3.30;;;1.05;;
48550;SDS011;34397;51.176;6.738;2024-02-14T12:45:21;5.35;;;1.10;;
48550;SDS011;34397;51.176;6.738;2024-02-14T12:47:53;2.03;;;1.15;;
48550;SDS011;34397;51.176;6.738;2024-02-14T12:50:26;6.03;;;1.40;;
48550;SDS011;34397;51.176;6.738;2024-02-14T12:52:58;2.20;;;1.13;;
48550;SDS011;34397;51.176;6.738;2024-02-14T12:55:30;3.00;;;0.82;;
48550;SDS011;34397;51.176;6.738;2024-02-14T12:58:02;7.65;;;1.10;;
48550;SDS011;34397;51.176;6.738;2024-02-14T13:00:35;2.50;;;1.15;;
48550;SDS011;34397;51.176;6.738;2024-02-14T13:03:08;4.22;;;1.15;;
48550;SDS011;34397;51.176;6.738;2024-02-14T13:05:41;2.67;;;1.08;;
48550;SDS011;34397;51.176;6.738;2024-02-14T13:08:13;3.33;;;1.58;;
48550;SDS011;34397;51.176;6.738;2024-02-14T13:10:46;2.85;;;1.00;;
48550;SDS011;34397;51.176;6.738;2024-02-14T13:13:19;4.45;;;0.95;;
48550;SDS011;34397;51.176;6.738;2024-02-14T13:15:51;2.05;;;0.80;;
48550;SDS011;34397;51.176;6.738;2024-02-14T13:18:23;2.15;;;0.75;;
48550;SDS011;34397;51.176;6.738;2024-02-14T13:20:56;2.53;;;0.63;;
48550;SDS011;34397;51.176;6.738;2024-02-14T13:23:29;0.90;;;0.60;;
48550;SDS011;34397;51.176;6.738;2024-02-14T13:26:01;2.58;;;0.70;;
48550;SDS011;34397;51.176;6.738;2024-02-14T13:28:33;1.52;;;0.73;;
48550;SDS011;34397;51.176;6.738;2024-02-14T13:31:05;0.73;;;0.43;;
48550;SDS011;34397;51.176;6.738;2024-02-14T13:33:37;2.60;;;1.23;;
48550;SDS011;34397;51.176;6.738;2024-02-14T13:36:10;1.58;;;0.63;;
48550;SDS011;34397;51.176;6.738;2024-02-14T13:38:42;2.03;;;0.80;;
48550;SDS011;34397;51.176;6.738;2024-02-14T13:41:16;2.20;;;0.70;;
48550;SDS011;34397;51.176;6.738;2024-02-14T13:43:47;4.13;;;0.52;;
48550;SDS011;34397;51.176;6.738;2024-02-14T13:46:19;4.68;;;1.40;;
48550;SDS011;34397;51.176;6.738;2024-02-14T13:48:51;1.42;;;0.60;;
48550;SDS011;34397;51.176;6.738;2024-02-14T13:51:25;0.60;;;0.40;;
48550;SDS011;34397;51.176;6.738;2024-02-14T13:53:57;2.80;;;0.60;;
48550;SDS011;34397;51.176;6.738;2024-02-14T13:56:29;1.88;;;0.40;;
48550;SDS011;34397;51.176;6.738;2024-02-14T13:59:01;1.65;;;0.40;;
48550;SDS011;34397;51.176;6.738;2024-02-14T14:01:33;0.73;;;0.35;;
48550;SDS011;34397;51.176;6.738;2024-02-14T14:04:05;1.00;;;0.63;;
48550;SDS011;34397;51.176;6.738;2024-02-14T14:06:38;1.30;;;0.40;;
48550;SDS011;34397;51.176;6.738;2024-02-14T14:09:10;0.63;;;0.20;;
48550;SDS011;34397;51.176;6.738;2024-02-14T14:11:42;0.30;;;0.20;;
48550;SDS011;34397;51.176;6.738;2024-02-14T14:14:14;0.52;;;0.30;;
48550;SDS011;34397;51.176;6.738;2024-02-14T14:16:48;1.92;;;0.40;;
48550;SDS011;34397;51.176;6.738;2024-02-14T14:19:21;1.75;;;0.43;;
48550;SDS011;34397;51.176;6.738;2024-02-14T14:21:54;1.45;;;0.45;;
48550;SDS011;34397;51.176;6.738;2024-02-14T14:24:27;0.63;;;0.30;;
48550;SDS011;34397;51.176;6.738;2024-02-14T14:27:01;1.75;;;0.30;;
48550;SDS011;34397;51.176;6.738;2024-02-14T14:29:33;4.15;;;0.50;;
48550;SDS011;34397;51.176;6.738;2024-02-14T14:32:05;0.68;;;0.30;;
48550;SDS011;34397;51.176;6.738;2024-02-14T14:34:38;0.80;;;0.32;;
48550;SDS011;34397;51.176;6.738;2024-02-14T14:37:11;0.77;;;0.30;;
48550;SDS011;34397;51.176;6.738;2024-02-14T14:39:43;1.08;;;0.30;;
48550;SDS011;34397;51.176;6.738;2024-02-14T14:42:15;0.40;;;0.30;;
48550;SDS011;34397;51.176;6.738;2024-02-14T14:44:47;0.68;;;0.40;;
48550;SDS011;34397;51.176;6.738;2024-02-14T14:47:19;1.15;;;0.47;;
48550;SDS011;34397;51.176;6.738;2024-02-14T14:49:52;1.00;;;0.50;;
48550;SDS011;34397;51.176;6.738;2024-02-14T14:52:26;0.70;;;0.40;;
48550;SDS011;34397;51.176;6.738;2024-02-14T14:54:57;0.40;;;0.30;;
48550;SDS011;34397;51.176;6.738;2024-02-14T14:57:29;1.13;;;0.40;;
48550;SDS011;34397;51.176;6.738;2024-02-14T15:00:01;0.98;;;0.40;;
48550;SDS011;34397;51.176;6.738;2024-02-14T15:02:34;2.35;;;0.30;;
48550;SDS011;34397;51.176;6.738;2024-02-14T15:05:07;0.40;;;0.20;;
48550;SDS011;34397;51.176;6.738;2024-02-14T15:07:42;0.70;;;0.40;;
48550;SDS011;34397;51.176;6.738;2024-02-14T15:10:13;1.17;;;0.30;;
48550;SDS011;34397;51.176;6.738;2024-02-14T15:12:46;1.13;;;0.40;;
48550;SDS011;34397;51.176;6.738;2024-02-14T15:15:18;1.42;;;0.30;;
48550;SDS011;34397;51.176;6.738;2024-02-14T15:17:51;1.55;;;0.43;;
48550;SDS011;34397;51.176;6.738;2024-02-14T15:20:22;1.10;;;0.52;;
48550;SDS011;34397;51.176;6.738;2024-02-14T15:22:56;1.45;;;0.60;;
48550;SDS011;34397;51.176;6.738;2024-02-14T15:25:27;1.73;;;0.70;;